sensor_id;sensor_type;location;lat;lon;timestamp;temperature;humidity
23010;DHT22;11671;49.990;8.028;2022-07-22T00:02:21;21.60;99.90
23010;DHT22;11671;49.990;8.028;2022-07-22T00:04:47;21.60;99.90
23010;DHT22;11671;49.990;8.028;2022-07-22T00:07:12;21.50;99.90
23010;DHT22;11671;49.990;8.028;2022-07-22T00:09:38;21.40;99.90
23010;DHT22;11671;49.990;8.028;2022-07-22T00:12:04;21.30;99.90
23010;DHT22;11671;49.990;8.028;2022-07-22T00:14:30;21.30;99.90
23010;DHT22;11671;49.990;8.028;2022-07-22T00:16:55;21.20;99.90
23010;DHT22;11671;49.990;8.028;2022-07-22T00:19:21;21.20;99.90
23010;DHT22;11671;49.990;8.028;2022-07-22T00:21:47;21.30;99.90
23010;DHT22;11671;49.990;8.028;2022-07-22T00:24:12;21.30;99.90
23010;DHT22;11671;49.990;8.028;2022-07-22T00:26:38;21.20;99.90
23010;DHT22;11671;49.990;8.028;2022-07-22T00:29:03;21.20;99.90
23010;DHT22;11671;49.990;8.028;2022-07-22T00:31:29;21.20;99.90
23010;DHT22;11671;49.990;8.028;2022-07-22T00:33:56;21.20;99.90
23010;DHT22;11671;49.990;8.028;2022-07-22T00:36:21;21.30;99.90
23010;DHT22;11671;49.990;8.028;2022-07-22T00:38:47;21.30;99.90
23010;DHT22;11671;49.990;8.028;2022-07-22T00:41:12;21.30;99.90
23010;DHT22;11671;49.990;8.028;2022-07-22T00:43:51;21.20;99.90
23010;DHT22;11671;49.990;8.028;2022-07-22T00:46:17;21.20;99.90
23010;DHT22;11671;49.990;8.028;2022-07-22T00:48:43;21.10;99.90
23010;DHT22;11671;49.990;8.028;2022-07-22T00:51:08;21.10;99.90
23010;DHT22;11671;49.990;8.028;2022-07-22T00:53:34;21.10;99.90
23010;DHT22;11671;49.990;8.028;2022-07-22T00:55:59;21.10;99.90
23010;DHT22;11671;49.990;8.028;2022-07-22T00:58:25;21.00;99.90
23010;DHT22;11671;49.990;8.028;2022-07-22T01:00:50;21.10;99.90
23010;DHT22;11671;49.990;8.028;2022-07-22T01:03:16;21.10;99.90
23010;DHT22;11671;49.990;8.028;2022-07-22T01:05:42;21.10;99.90
23010;DHT22;11671;49.990;8.028;2022-07-22T01:08:07;21.10;99.90
23010;DHT22;11671;49.990;8.028;2022-07-22T01:10:33;20.90;99.90
23010;DHT22;11671;49.990;8.028;2022-07-22T01:12:59;20.80;99.90
23010;DHT22;11671;49.990;8.028;2022-07-22T01:15:24;20.80;99.90
23010;DHT22;11671;49.990;8.028;2022-07-22T01:17:50;20.80;99.90
23010;DHT22;11671;49.990;8.028;2022-07-22T01:20:15;20.80;99.90
23010;DHT22;11671;49.990;8.028;2022-07-22T01:22:41;20.80;99.90
23010;DHT22;11671;49.990;8.028;2022-07-22T01:25:07;20.70;99.90
23010;DHT22;11671;49.990;8.028;2022-07-22T01:27:32;20.70;99.90
23010;DHT22;11671;49.990;8.028;2022-07-22T01:29:58;20.70;99.90
23010;DHT22;11671;49.990;8.028;2022-07-22T01:32:24;20.70;99.90
23010;DHT22;11671;49.990;8.028;2022-07-22T01:34:52;20.60;99.90
23010;DHT22;11671;49.990;8.028;2022-07-22T01:37:17;20.60;99.90
23010;DHT22;11671;49.990;8.028;2022-07-22T01:39:43;20.60;99.90
23010;DHT22;11671;49.990;8.028;2022-07-22T01:42:08;20.50;99.90
23010;DHT22;11671;49.990;8.028;2022-07-22T01:44:34;20.50;99.90
23010;DHT22;11671;49.990;8.028;2022-07-22T01:46:59;20.50;99.90
23010;DHT22;11671;49.990;8.028;2022-07-22T01:49:25;20.50;99.90
23010;DHT22;11671;49.990;8.028;2022-07-22T01:51:51;20.60;99.90
23010;DHT22;11671;49.990;8.028;2022-07-22T01:54:16;20.70;99.90
23010;DHT22;11671;49.990;8.028;2022-07-22T01:56:42;20.70;99.90
23010;DHT22;11671;49.990;8.028;2022-07-22T01:59:07;20.80;99.90
23010;DHT22;11671;49.990;8.028;2022-07-22T02:01:33;20.80;99.90
23010;DHT22;11671;49.990;8.028;2022-07-22T02:03:58;20.80;99.90
23010;DHT22;11671;49.990;8.028;2022-07-22T02:06:24;20.80;99.90
23010;DHT22;11671;49.990;8.028;2022-07-22T02:08:49;20.90;99.90
23010;DHT22;11671;49.990;8.028;2022-07-22T02:11:15;21.00;99.90
23010;DHT22;11671;49.990;8.028;2022-07-22T02:13:40;21.00;99.90
23010;DHT22;11671;49.990;8.028;2022-07-22T02:16:06;20.90;99.90
23010;DHT22;11671;49.990;8.028;2022-07-22T02:18:31;21.00;99.90
23010;DHT22;11671;49.990;8.028;2022-07-22T02:20:57;21.00;99.90
23010;DHT22;11671;49.990;8.028;2022-07-22T02:23:22;21.10;99.90
23010;DHT22;11671;49.990;8.028;2022-07-22T02:25:48;21.10;99.90
23010;DHT22;11671;49.990;8.028;2022-07-22T02:28:13;21.10;99.90
23010;DHT22;11671;49.990;8.028;2022-07-22T02:30:39;21.10;99.90
23010;DHT22;11671;49.990;8.028;2022-07-22T02:33:05;21.10;99.90
23010;DHT22;11671;49.990;8.028;2022-07-22T02:35:30;21.10;99.90
23010;DHT22;11671;49.990;8.028;2022-07-22T02:37:56;21.00;99.90
23010;DHT22;11671;49.990;8.028;2022-07-22T02:40:21;21.00;99.90
23010;DHT22;11671;49.990;8.028;2022-07-22T02:42:47;20.90;99.90
23010;DHT22;11671;49.990;8.028;2022-07-22T02:45:12;20.90;99.90
23010;DHT22;11671;49.990;8.028;2022-07-22T02:47:45;21.00;99.90
23010;DHT22;11671;49.990;8.028;2022-07-22T02:50:11;21.00;99.90
23010;DHT22;11671;49.990;8.028;2022-07-22T02:52:36;21.00;99.90
23010;DHT22;11671;49.990;8.028;2022-07-22T02:55:02;21.00;99.90
23010;DHT22;11671;49.990;8.028;2022-07-22T02:57:27;20.90;99.90
23010;DHT22;11671;49.990;8.028;2022-07-22T02:59:53;20.80;99.90
23010;DHT22;11671;49.990;8.028;2022-07-22T03:02:18;20.70;99.90
23010;DHT22;11671;49.990;8.028;2022-07-22T03:04:44;20.70;99.90
23010;DHT22;11671;49.990;8.028;2022-07-22T03:07:09;20.80;99.90
23010;DHT22;11671;49.990;8.028;2022-07-22T03:09:35;20.90;99.90
23010;DHT22;11671;49.990;8.028;2022-07-22T03:12:00;20.90;99.90
23010;DHT22;11671;49.990;8.028;2022-07-22T03:14:26;20.90;99.90
23010;DHT22;11671;49.990;8.028;2022-07-22T03:16:51;20.90;99.90
23010;DHT22;11671;49.990;8.028;2022-07-22T03:19:17;20.90;99.90
23010;DHT22;11671;49.990;8.028;2022-07-22T03:21:42;20.90;99.90
23010;DHT22;11671;49.990;8.028;2022-07-22T03:24:08;20.90;99.90
23010;DHT22;11671;49.990;8.028;2022-07-22T03:26:34;20.90;99.90
23010;DHT22;11671;49.990;8.028;2022-07-22T03:28:59;20.90;99.90
23010;DHT22;11671;49.990;8.028;2022-07-22T03:31:25;20.90;99.90
23010;DHT22;11671;49.990;8.028;2022-07-22T03:33:51;20.90;99.90
23010;DHT22;11671;49.990;8.028;2022-07-22T03:36:16;20.80;99.90
23010;DHT22;11671;49.990;8.028;2022-07-22T03:38:42;20.80;99.90
23010;DHT22;11671;49.990;8.028;2022-07-22T03:41:07;20.70;99.90
23010;DHT22;11671;49.990;8.028;2022-07-22T03:43:34;20.70;99.90
23010;DHT22;11671;49.990;8.028;2022-07-22T03:45:59;20.60;99.90
23010;DHT22;11671;49.990;8.028;2022-07-22T03:48:25;20.50;99.90
23010;DHT22;11671;49.990;8.028;2022-07-22T03:50:51;20.50;99.90
23010;DHT22;11671;49.990;8.028;2022-07-22T03:53:17;20.50;99.90
23010;DHT22;11671;49.990;8.028;2022-07-22T03:55:42;20.60;99.90
23010;DHT22;11671;49.990;8.028;2022-07-22T03:58:08;20.50;99.90
23010;DHT22;11671;49.990;8.028;2022-07-22T04:00:33;20.50;99.90
23010;DHT22;11671;49.990;8.028;2022-07-22T04:02:59;20.50;99.90
23010;DHT22;11671;49.990;8.028;2022-07-22T04:05:25;20.50;99.90
23010;DHT22;11671;49.990;8.028;2022-07-22T04:07:50;20.50;99.90
23010;DHT22;11671;49.990;8.028;2022-07-22T04:10:16;20.40;99.90
23010;DHT22;11671;49.990;8.028;2022-07-22T04:12:41;20.40;99.90
23010;DHT22;11671;49.990;8.028;2022-07-22T04:15:07;20.40;99.90
23010;DHT22;11671;49.990;8.028;2022-07-22T04:17:33;20.40;99.90
23010;DHT22;11671;49.990;8.028;2022-07-22T04:19:58;20.30;99.90
23010;DHT22;11671;49.990;8.028;2022-07-22T04:22:26;20.30;99.90
23010;DHT22;11671;49.990;8.028;2022-07-22T04:24:51;20.40;99.90
23010;DHT22;11671;49.990;8.028;2022-07-22T04:27:17;20.30;99.90
23010;DHT22;11671;49.990;8.028;2022-07-22T04:29:43;20.30;99.90
23010;DHT22;11671;49.990;8.028;2022-07-22T04:32:08;20.40;99.90
23010;DHT22;11671;49.990;8.028;2022-07-22T04:34:34;20.50;99.90
23010;DHT22;11671;49.990;8.028;2022-07-22T04:36:59;20.60;99.90
23010;DHT22;11671;49.990;8.028;2022-07-22T04:39:24;20.60;99.90
23010;DHT22;11671;49.990;8.028;2022-07-22T04:41:50;20.80;99.90
23010;DHT22;11671;49.990;8.028;2022-07-22T04:44:15;20.80;99.90
23010;DHT22;11671;49.990;8.028;2022-07-22T04:46:41;20.90;99.90
23010;DHT22;11671;49.990;8.028;2022-07-22T04:49:06;21.00;99.90
23010;DHT22;11671;49.990;8.028;2022-07-22T04:51:32;21.00;99.90
23010;DHT22;11671;49.990;8.028;2022-07-22T04:53:57;20.90;99.90
23010;DHT22;11671;49.990;8.028;2022-07-22T04:56:23;20.90;99.90
23010;DHT22;11671;49.990;8.028;2022-07-22T04:58:48;20.90;99.90
23010;DHT22;11671;49.990;8.028;2022-07-22T05:01:14;20.80;99.90
23010;DHT22;11671;49.990;8.028;2022-07-22T05:03:40;20.90;99.90
23010;DHT22;11671;49.990;8.028;2022-07-22T05:06:06;21.00;99.90
23010;DHT22;11671;49.990;8.028;2022-07-22T05:08:32;21.00;99.90
23010;DHT22;11671;49.990;8.028;2022-07-22T05:10:58;21.10;99.90
23010;DHT22;11671;49.990;8.028;2022-07-22T05:13:23;21.20;99.90
23010;DHT22;11671;49.990;8.028;2022-07-22T05:15:49;21.20;99.90
23010;DHT22;11671;49.990;8.028;2022-07-22T05:18:14;21.20;99.90
23010;DHT22;11671;49.990;8.028;2022-07-22T05:20:40;21.20;99.90
23010;DHT22;11671;49.990;8.028;2022-07-22T05:23:05;21.10;99.90
23010;DHT22;11671;49.990;8.028;2022-07-22T05:25:31;21.20;99.90
23010;DHT22;11671;49.990;8.028;2022-07-22T05:27:57;21.30;99.90
23010;DHT22;11671;49.990;8.028;2022-07-22T05:30:22;21.40;99.90
23010;DHT22;11671;49.990;8.028;2022-07-22T05:32:48;21.40;99.90
23010;DHT22;11671;49.990;8.028;2022-07-22T05:35:13;21.60;99.90
23010;DHT22;11671;49.990;8.028;2022-07-22T05:37:39;22.00;99.90
23010;DHT22;11671;49.990;8.028;2022-07-22T05:40:05;23.70;99.90
23010;DHT22;11671;49.990;8.028;2022-07-22T05:42:30;24.70;99.90
23010;DHT22;11671;49.990;8.028;2022-07-22T05:44:56;25.20;99.90
23010;DHT22;11671;49.990;8.028;2022-07-22T05:47:21;25.00;99.90
23010;DHT22;11671;49.990;8.028;2022-07-22T05:49:47;24.40;99.90
23010;DHT22;11671;49.990;8.028;2022-07-22T05:52:12;23.90;99.90
23010;DHT22;11671;49.990;8.028;2022-07-22T05:54:38;23.40;99.90
23010;DHT22;11671;49.990;8.028;2022-07-22T05:57:05;23.20;99.90
23010;DHT22;11671;49.990;8.028;2022-07-22T05:59:33;23.20;99.90
23010;DHT22;11671;49.990;8.028;2022-07-22T06:01:59;23.50;99.90
23010;DHT22;11671;49.990;8.028;2022-07-22T06:04:24;24.20;99.90
23010;DHT22;11671;49.990;8.028;2022-07-22T06:06:50;24.20;99.90
23010;DHT22;11671;49.990;8.028;2022-07-22T06:09:15;23.90;99.90
23010;DHT22;11671;49.990;8.028;2022-07-22T06:11:41;24.10;99.90
23010;DHT22;11671;49.990;8.028;2022-07-22T06:14:06;25.50;99.90
23010;DHT22;11671;49.990;8.028;2022-07-22T06:16:32;26.00;99.90
23010;DHT22;11671;49.990;8.028;2022-07-22T06:18:57;25.30;99.90
23010;DHT22;11671;49.990;8.028;2022-07-22T06:21:23;24.70;99.90
23010;DHT22;11671;49.990;8.028;2022-07-22T06:23:49;24.60;99.90
23010;DHT22;11671;49.990;8.028;2022-07-22T06:26:14;24.60;99.90
23010;DHT22;11671;49.990;8.028;2022-07-22T06:28:40;24.90;99.90
23010;DHT22;11671;49.990;8.028;2022-07-22T06:31:05;25.20;99.90
23010;DHT22;11671;49.990;8.028;2022-07-22T06:33:31;26.10;99.90
23010;DHT22;11671;49.990;8.028;2022-07-22T06:38:24;27.20;99.90
23010;DHT22;11671;49.990;8.028;2022-07-22T06:40:49;28.10;99.90
23010;DHT22;11671;49.990;8.028;2022-07-22T06:45:43;30.30;99.90
23010;DHT22;11671;49.990;8.028;2022-07-22T06:48:09;30.40;99.90
23010;DHT22;11671;49.990;8.028;2022-07-22T06:50:34;30.80;99.90
23010;DHT22;11671;49.990;8.028;2022-07-22T06:53:00;31.30;99.90
23010;DHT22;11671;49.990;8.028;2022-07-22T06:55:25;31.70;99.90
23010;DHT22;11671;49.990;8.028;2022-07-22T06:57:51;32.10;99.90
23010;DHT22;11671;49.990;8.028;2022-07-22T07:02:42;32.60;99.90
23010;DHT22;11671;49.990;8.028;2022-07-22T07:07:34;33.50;99.90
23010;DHT22;11671;49.990;8.028;2022-07-22T07:10:00;33.10;99.90
23010;DHT22;11671;49.990;8.028;2022-07-22T07:12:26;32.60;99.90
23010;DHT22;11671;49.990;8.028;2022-07-22T07:14:51;32.40;99.90
23010;DHT22;11671;49.990;8.028;2022-07-22T07:17:17;32.20;99.90
23010;DHT22;11671;49.990;8.028;2022-07-22T07:19:42;32.80;99.90
23010;DHT22;11671;49.990;8.028;2022-07-22T07:22:08;32.20;99.90
23010;DHT22;11671;49.990;8.028;2022-07-22T07:24:33;32.40;99.90
23010;DHT22;11671;49.990;8.028;2022-07-22T07:26:59;32.80;99.90
23010;DHT22;11671;49.990;8.028;2022-07-22T07:29:24;33.10;99.90
23010;DHT22;11671;49.990;8.028;2022-07-22T07:31:50;33.60;99.00
23010;DHT22;11671;49.990;8.028;2022-07-22T07:34:15;33.70;98.20
23010;DHT22;11671;49.990;8.028;2022-07-22T07:36:41;34.00;97.40
23010;DHT22;11671;49.990;8.028;2022-07-22T07:39:07;34.00;96.80
23010;DHT22;11671;49.990;8.028;2022-07-22T07:41:33;34.10;99.90
23010;DHT22;11671;49.990;8.028;2022-07-22T07:43:58;34.40;99.90
23010;DHT22;11671;49.990;8.028;2022-07-22T07:46:24;34.20;95.10
23010;DHT22;11671;49.990;8.028;2022-07-22T07:48:49;34.00;95.00
23010;DHT22;11671;49.990;8.028;2022-07-22T07:51:15;34.10;94.90
23010;DHT22;11671;49.990;8.028;2022-07-22T07:53:41;33.90;94.40
23010;DHT22;11671;49.990;8.028;2022-07-22T07:56:06;33.80;94.40
23010;DHT22;11671;49.990;8.028;2022-07-22T07:58:32;33.80;93.60
23010;DHT22;11671;49.990;8.028;2022-07-22T08:00:57;33.70;93.90
23010;DHT22;11671;49.990;8.028;2022-07-22T08:03:23;33.60;94.00
23010;DHT22;11671;49.990;8.028;2022-07-22T08:05:48;33.60;93.90
23010;DHT22;11671;49.990;8.028;2022-07-22T08:08:14;33.80;93.40
23010;DHT22;11671;49.990;8.028;2022-07-22T08:10:39;33.50;93.60
23010;DHT22;11671;49.990;8.028;2022-07-22T08:13:05;33.50;93.90
23010;DHT22;11671;49.990;8.028;2022-07-22T08:15:31;33.30;93.30
23010;DHT22;11671;49.990;8.028;2022-07-22T08:17:56;33.00;93.80
23010;DHT22;11671;49.990;8.028;2022-07-22T08:20:22;32.70;94.00
23010;DHT22;11671;49.990;8.028;2022-07-22T08:22:48;32.60;93.90
23010;DHT22;11671;49.990;8.028;2022-07-22T08:25:14;32.40;93.90
23010;DHT22;11671;49.990;8.028;2022-07-22T08:27:39;32.40;94.10
23010;DHT22;11671;49.990;8.028;2022-07-22T08:30:05;32.20;94.50
23010;DHT22;11671;49.990;8.028;2022-07-22T08:32:31;32.20;94.70
23010;DHT22;11671;49.990;8.028;2022-07-22T08:34:57;32.20;94.40
23010;DHT22;11671;49.990;8.028;2022-07-22T08:37:22;32.10;94.60
23010;DHT22;11671;49.990;8.028;2022-07-22T08:39:48;31.80;99.90
23010;DHT22;11671;49.990;8.028;2022-07-22T08:42:14;31.10;95.50
23010;DHT22;11671;49.990;8.028;2022-07-22T08:44:39;30.70;96.40
23010;DHT22;11671;49.990;8.028;2022-07-22T08:47:05;30.50;96.50
23010;DHT22;11671;49.990;8.028;2022-07-22T08:49:31;30.30;97.20
23010;DHT22;11671;49.990;8.028;2022-07-22T08:51:56;30.40;97.20
23010;DHT22;11671;49.990;8.028;2022-07-22T08:54:22;30.50;96.70
23010;DHT22;11671;49.990;8.028;2022-07-22T08:56:48;30.80;96.90
23010;DHT22;11671;49.990;8.028;2022-07-22T08:59:14;30.80;96.90
23010;DHT22;11671;49.990;8.028;2022-07-22T09:02:00;30.20;97.50
23010;DHT22;11671;49.990;8.028;2022-07-22T09:04:25;29.80;97.90
23010;DHT22;11671;49.990;8.028;2022-07-22T09:06:50;29.30;98.70
23010;DHT22;11671;49.990;8.028;2022-07-22T09:09:16;28.90;99.60
23010;DHT22;11671;49.990;8.028;2022-07-22T09:11:41;29.00;99.90
23010;DHT22;11671;49.990;8.028;2022-07-22T09:14:07;29.40;99.50
23010;DHT22;11671;49.990;8.028;2022-07-22T09:16:43;29.60;99.70
23010;DHT22;11671;49.990;8.028;2022-07-22T09:19:09;29.60;99.90
23010;DHT22;11671;49.990;8.028;2022-07-22T09:21:35;30.10;99.60
23010;DHT22;11671;49.990;8.028;2022-07-22T09:24:04;30.50;99.20
23010;DHT22;11671;49.990;8.028;2022-07-22T09:28:56;29.90;99.30
23010;DHT22;11671;49.990;8.028;2022-07-22T09:31:39;29.50;99.90
23010;DHT22;11671;49.990;8.028;2022-07-22T09:34:05;29.20;99.90
23010;DHT22;11671;49.990;8.028;2022-07-22T09:36:31;29.40;99.90
23010;DHT22;11671;49.990;8.028;2022-07-22T09:38:56;29.60;99.90
23010;DHT22;11671;49.990;8.028;2022-07-22T09:41:22;29.50;99.90
23010;DHT22;11671;49.990;8.028;2022-07-22T09:43:48;29.50;99.90
23010;DHT22;11671;49.990;8.028;2022-07-22T09:46:15;29.60;99.90
23010;DHT22;11671;49.990;8.028;2022-07-22T09:48:41;29.70;99.90
23010;DHT22;11671;49.990;8.028;2022-07-22T09:51:07;30.00;99.90
23010;DHT22;11671;49.990;8.028;2022-07-22T09:53:33;30.30;99.90
23010;DHT22;11671;49.990;8.028;2022-07-22T09:55:59;30.30;99.90
23010;DHT22;11671;49.990;8.028;2022-07-22T09:58:25;30.60;99.90
23010;DHT22;11671;49.990;8.028;2022-07-22T10:00:52;30.70;99.90
23010;DHT22;11671;49.990;8.028;2022-07-22T10:03:25;30.90;99.90
23010;DHT22;11671;49.990;8.028;2022-07-22T10:05:51;30.90;99.30
23010;DHT22;11671;49.990;8.028;2022-07-22T10:08:17;30.90;99.60
23010;DHT22;11671;49.990;8.028;2022-07-22T10:10:43;30.80;99.70
23010;DHT22;11671;49.990;8.028;2022-07-22T10:13:09;30.80;99.90
23010;DHT22;11671;49.990;8.028;2022-07-22T10:15:35;30.60;99.60
23010;DHT22;11671;49.990;8.028;2022-07-22T10:18:02;30.50;99.70
23010;DHT22;11671;49.990;8.028;2022-07-22T10:20:30;30.10;99.90
23010;DHT22;11671;49.990;8.028;2022-07-22T10:22:56;29.80;99.90
23010;DHT22;11671;49.990;8.028;2022-07-22T10:25:23;29.70;99.90
23010;DHT22;11671;49.990;8.028;2022-07-22T10:30:16;29.70;99.90
23010;DHT22;11671;49.990;8.028;2022-07-22T10:32:42;29.80;99.90
23010;DHT22;11671;49.990;8.028;2022-07-22T10:37:37;30.00;99.90
23010;DHT22;11671;49.990;8.028;2022-07-22T10:40:13;30.20;99.90
23010;DHT22;11671;49.990;8.028;2022-07-22T10:45:30;30.30;99.80
23010;DHT22;11671;49.990;8.028;2022-07-22T10:48:05;30.30;99.40
23010;DHT22;11671;49.990;8.028;2022-07-22T10:53:06;30.60;99.90
23010;DHT22;11671;49.990;8.028;2022-07-22T10:55:32;30.90;99.20
23010;DHT22;11671;49.990;8.028;2022-07-22T10:57:58;30.90;99.10
23010;DHT22;11671;49.990;8.028;2022-07-22T11:00:24;30.80;99.30
23010;DHT22;11671;49.990;8.028;2022-07-22T11:02:49;30.70;99.60
23010;DHT22;11671;49.990;8.028;2022-07-22T11:05:24;30.90;99.90
23010;DHT22;11671;49.990;8.028;2022-07-22T11:07:50;31.00;99.10
23010;DHT22;11671;49.990;8.028;2022-07-22T11:10:17;30.90;98.90
23010;DHT22;11671;49.990;8.028;2022-07-22T11:12:46;30.80;98.80
23010;DHT22;11671;49.990;8.028;2022-07-22T11:15:12;30.80;98.70
23010;DHT22;11671;49.990;8.028;2022-07-22T11:17:38;31.00;98.50
23010;DHT22;11671;49.990;8.028;2022-07-22T11:20:05;31.00;98.90
23010;DHT22;11671;49.990;8.028;2022-07-22T11:22:31;31.00;98.70
23010;DHT22;11671;49.990;8.028;2022-07-22T11:24:57;31.10;98.40
23010;DHT22;11671;49.990;8.028;2022-07-22T11:27:24;31.20;97.60
23010;DHT22;11671;49.990;8.028;2022-07-22T11:29:51;31.00;97.90
23010;DHT22;11671;49.990;8.028;2022-07-22T11:32:17;30.90;97.60
23010;DHT22;11671;49.990;8.028;2022-07-22T11:34:44;30.90;97.60
23010;DHT22;11671;49.990;8.028;2022-07-22T11:37:12;30.90;97.10
23010;DHT22;11671;49.990;8.028;2022-07-22T11:39:37;31.00;97.40
23010;DHT22;11671;49.990;8.028;2022-07-22T11:42:03;31.00;97.40
23010;DHT22;11671;49.990;8.028;2022-07-22T11:44:30;31.00;96.70
23010;DHT22;11671;49.990;8.028;2022-07-22T11:46:56;31.00;95.70
23010;DHT22;11671;49.990;8.028;2022-07-22T11:49:24;31.00;95.50
23010;DHT22;11671;49.990;8.028;2022-07-22T11:51:50;31.10;95.00
23010;DHT22;11671;49.990;8.028;2022-07-22T11:54:16;31.10;94.80
23010;DHT22;11671;49.990;8.028;2022-07-22T11:56:41;31.40;94.40
23010;DHT22;11671;49.990;8.028;2022-07-22T11:59:07;31.70;93.80
23010;DHT22;11671;49.990;8.028;2022-07-22T12:01:35;31.70;93.90
23010;DHT22;11671;49.990;8.028;2022-07-22T12:04:07;31.90;94.00
23010;DHT22;11671;49.990;8.028;2022-07-22T12:06:35;31.90;94.30
23010;DHT22;11671;49.990;8.028;2022-07-22T12:09:05;32.00;94.10
23010;DHT22;11671;49.990;8.028;2022-07-22T12:11:31;32.10;93.20
23010;DHT22;11671;49.990;8.028;2022-07-22T12:13:57;32.00;92.60
23010;DHT22;11671;49.990;8.028;2022-07-22T12:16:29;32.00;92.20
23010;DHT22;11671;49.990;8.028;2022-07-22T12:21:25;32.10;91.10
23010;DHT22;11671;49.990;8.028;2022-07-22T12:24:04;32.30;91.40
23010;DHT22;11671;49.990;8.028;2022-07-22T12:26:37;32.50;90.80
23010;DHT22;11671;49.990;8.028;2022-07-22T12:29:16;32.70;91.30
23010;DHT22;11671;49.990;8.028;2022-07-22T12:32:25;32.60;91.40
23010;DHT22;11671;49.990;8.028;2022-07-22T12:34:35;32.70;91.40
23010;DHT22;11671;49.990;8.028;2022-07-22T12:37:10;32.40;90.90
23010;DHT22;11671;49.990;8.028;2022-07-22T12:39:36;32.30;91.00
23010;DHT22;11671;49.990;8.028;2022-07-22T12:42:02;32.40;90.80
23010;DHT22;11671;49.990;8.028;2022-07-22T12:44:27;32.40;91.10
23010;DHT22;11671;49.990;8.028;2022-07-22T12:46:54;32.30;91.50
23010;DHT22;11671;49.990;8.028;2022-07-22T12:49:23;32.40;91.70
23010;DHT22;11671;49.990;8.028;2022-07-22T12:54:30;32.40;91.40
23010;DHT22;11671;49.990;8.028;2022-07-22T12:56:56;32.60;91.10
23010;DHT22;11671;49.990;8.028;2022-07-22T12:59:21;32.70;90.40
23010;DHT22;11671;49.990;8.028;2022-07-22T13:01:47;32.90;90.80
23010;DHT22;11671;49.990;8.028;2022-07-22T13:04:14;33.20;91.00
23010;DHT22;11671;49.990;8.028;2022-07-22T13:09:05;33.30;90.10
23010;DHT22;11671;49.990;8.028;2022-07-22T13:11:31;33.30;90.00
23010;DHT22;11671;49.990;8.028;2022-07-22T13:13:56;33.20;90.30
23010;DHT22;11671;49.990;8.028;2022-07-22T13:16:22;33.10;90.00
23010;DHT22;11671;49.990;8.028;2022-07-22T13:18:50;33.40;90.20
23010;DHT22;11671;49.990;8.028;2022-07-22T13:23:41;33.70;87.80
23010;DHT22;11671;49.990;8.028;2022-07-22T13:26:06;33.60;90.50
23010;DHT22;11671;49.990;8.028;2022-07-22T13:28:32;33.50;91.20
23010;DHT22;11671;49.990;8.028;2022-07-22T13:30:57;33.40;91.30
23010;DHT22;11671;49.990;8.028;2022-07-22T13:33:23;33.50;90.80
23010;DHT22;11671;49.990;8.028;2022-07-22T13:35:48;33.60;90.60
23010;DHT22;11671;49.990;8.028;2022-07-22T13:38:14;33.70;90.40
23010;DHT22;11671;49.990;8.028;2022-07-22T13:40:42;33.90;90.60
23010;DHT22;11671;49.990;8.028;2022-07-22T13:43:08;34.10;85.90
23010;DHT22;11671;49.990;8.028;2022-07-22T13:45:33;34.10;85.40
23010;DHT22;11671;49.990;8.028;2022-07-22T13:47:59;34.30;85.50
23010;DHT22;11671;49.990;8.028;2022-07-22T13:50:24;34.40;84.70
23010;DHT22;11671;49.990;8.028;2022-07-22T13:52:50;34.20;84.80
23010;DHT22;11671;49.990;8.028;2022-07-22T13:55:15;34.10;84.90
23010;DHT22;11671;49.990;8.028;2022-07-22T13:57:42;34.30;85.20
23010;DHT22;11671;49.990;8.028;2022-07-22T14:00:07;34.30;84.00
23010;DHT22;11671;49.990;8.028;2022-07-22T14:02:33;34.20;83.00
23010;DHT22;11671;49.990;8.028;2022-07-22T14:04:59;34.20;82.90
23010;DHT22;11671;49.990;8.028;2022-07-22T14:07:24;34.30;82.60
23010;DHT22;11671;49.990;8.028;2022-07-22T14:09:50;34.40;83.70
23010;DHT22;11671;49.990;8.028;2022-07-22T14:14:42;35.10;95.30
23010;DHT22;11671;49.990;8.028;2022-07-22T14:17:07;35.10;90.30
23010;DHT22;11671;49.990;8.028;2022-07-22T14:19:33;35.20;81.50
23010;DHT22;11671;49.990;8.028;2022-07-22T14:21:59;35.40;80.00
23010;DHT22;11671;49.990;8.028;2022-07-22T14:24:27;35.60;78.30
23010;DHT22;11671;49.990;8.028;2022-07-22T14:26:53;35.30;79.80
23010;DHT22;11671;49.990;8.028;2022-07-22T14:29:19;35.10;80.20
23010;DHT22;11671;49.990;8.028;2022-07-22T14:31:46;35.20;80.30
23010;DHT22;11671;49.990;8.028;2022-07-22T14:34:12;35.30;78.80
23010;DHT22;11671;49.990;8.028;2022-07-22T14:36:37;35.50;79.00
23010;DHT22;11671;49.990;8.028;2022-07-22T14:39:03;35.50;77.30
23010;DHT22;11671;49.990;8.028;2022-07-22T14:41:28;35.50;78.30
23010;DHT22;11671;49.990;8.028;2022-07-22T14:43:54;35.60;77.70
23010;DHT22;11671;49.990;8.028;2022-07-22T14:46:20;35.50;77.10
23010;DHT22;11671;49.990;8.028;2022-07-22T14:48:45;35.30;75.70
23010;DHT22;11671;49.990;8.028;2022-07-22T14:51:11;35.60;75.70
23010;DHT22;11671;49.990;8.028;2022-07-22T14:53:36;35.50;75.20
23010;DHT22;11671;49.990;8.028;2022-07-22T14:56:02;35.50;74.60
23010;DHT22;11671;49.990;8.028;2022-07-22T14:58:28;35.50;75.90
23010;DHT22;11671;49.990;8.028;2022-07-22T15:00:53;35.40;76.30
23010;DHT22;11671;49.990;8.028;2022-07-22T15:03:19;35.30;75.40
23010;DHT22;11671;49.990;8.028;2022-07-22T15:05:44;35.40;75.40
23010;DHT22;11671;49.990;8.028;2022-07-22T15:08:10;35.50;76.30
23010;DHT22;11671;49.990;8.028;2022-07-22T15:10:35;35.40;75.20
23010;DHT22;11671;49.990;8.028;2022-07-22T15:13:01;35.30;75.40
23010;DHT22;11671;49.990;8.028;2022-07-22T15:15:26;35.10;75.90
23010;DHT22;11671;49.990;8.028;2022-07-22T15:17:52;35.10;75.60
23010;DHT22;11671;49.990;8.028;2022-07-22T15:20:17;35.00;75.90
23010;DHT22;11671;49.990;8.028;2022-07-22T15:22:43;35.10;75.70
23010;DHT22;11671;49.990;8.028;2022-07-22T15:25:09;35.10;75.90
23010;DHT22;11671;49.990;8.028;2022-07-22T15:27:35;35.00;75.20
23010;DHT22;11671;49.990;8.028;2022-07-22T15:30:06;35.00;75.30
23010;DHT22;11671;49.990;8.028;2022-07-22T15:32:32;35.00;75.00
23010;DHT22;11671;49.990;8.028;2022-07-22T15:34:58;34.90;75.70
23010;DHT22;11671;49.990;8.028;2022-07-22T15:37:23;35.00;75.70
23010;DHT22;11671;49.990;8.028;2022-07-22T15:39:49;35.20;76.30
23010;DHT22;11671;49.990;8.028;2022-07-22T15:42:15;35.30;75.40
23010;DHT22;11671;49.990;8.028;2022-07-22T15:44:41;35.30;75.00
23010;DHT22;11671;49.990;8.028;2022-07-22T15:47:06;35.00;75.30
23010;DHT22;11671;49.990;8.028;2022-07-22T15:49:32;34.80;74.80
23010;DHT22;11671;49.990;8.028;2022-07-22T15:51:57;34.70;74.80
23010;DHT22;11671;49.990;8.028;2022-07-22T15:54:24;34.80;75.40
23010;DHT22;11671;49.990;8.028;2022-07-22T15:56:50;35.00;74.60
23010;DHT22;11671;49.990;8.028;2022-07-22T15:59:15;35.00;74.20